sensor_id;sensor_type;location;lat;lon;timestamp;pressure;altitude;pressure_sealevel;temperature;humidity
11692;BME280;33659;42.672;23.354;2023-02-14T00:01:16;95728.56;;;3.87;61.03
11692;BME280;33659;42.672;23.354;2023-02-14T00:03:44;95746.91;;;3.91;60.94
11692;BME280;33659;42.672;23.354;2023-02-14T00:06:12;95731.91;;;3.88;60.53
11692;BME280;33659;42.672;23.354;2023-02-14T00:08:40;95731.88;;;3.83;61.05
11692;BME280;33659;42.672;23.354;2023-02-14T00:11:09;95741.91;;;3.74;61.59
11692;BME280;33659;42.672;23.354;2023-02-14T00:13:36;95730.78;;;3.73;61.25
11692;BME280;33659;42.672;23.354;2023-02-14T00:16:04;95740.63;;;3.76;61.57
11692;BME280;33659;42.672;23.354;2023-02-14T00:18:30;95746.28;;;3.73;61.18
11692;BME280;33659;42.672;23.354;2023-02-14T00:21:15;95742.69;;;3.74;61.50
11692;BME280;33659;42.672;23.354;2023-02-14T00:23:41;95734.69;;;3.76;61.40
11692;BME280;33659;42.672;23.354;2023-02-14T00:26:12;95750.97;;;3.76;61.19
11692;BME280;33659;42.672;23.354;2023-02-14T00:28:39;95717.91;;;3.78;61.03
11692;BME280;33659;42.672;23.354;2023-02-14T00:31:07;95738.78;;;3.72;62.00
11692;BME280;33659;42.672;23.354;2023-02-14T00:33:34;95741.66;;;3.75;62.23
11692;BME280;33659;42.672;23.354;2023-02-14T00:36:01;95695.56;;;3.57;61.72
11692;BME280;33659;42.672;23.354;2023-02-14T00:38:29;95744.25;;;3.75;62.09
11692;BME280;33659;42.672;23.354;2023-02-14T00:40:55;95731.28;;;3.70;62.33
11692;BME280;33659;42.672;23.354;2023-02-14T00:43:22;95723.34;;;3.82;61.43
11692;BME280;33659;42.672;23.354;2023-02-14T00:45:49;95735.50;;;3.82;61.93
11692;BME280;33659;42.672;23.354;2023-02-14T00:48:17;95738.56;;;3.78;62.61
11692;BME280;33659;42.672;23.354;2023-02-14T00:50:43;95739.03;;;3.70;62.40
11692;BME280;33659;42.672;23.354;2023-02-14T00:53:11;95751.75;;;3.77;62.66
11692;BME280;33659;42.672;23.354;2023-02-14T00:55:37;95705.22;;;3.72;62.75
11692;BME280;33659;42.672;23.354;2023-02-14T00:58:04;95725.63;;;3.73;62.64
11692;BME280;33659;42.672;23.354;2023-02-14T01:00:31;95718.97;;;3.83;61.76
11692;BME280;33659;42.672;23.354;2023-02-14T01:02:57;95705.00;;;3.84;62.21
11692;BME280;33659;42.672;23.354;2023-02-14T01:05:25;95725.66;;;3.78;62.06
11692;BME280;33659;42.672;23.354;2023-02-14T01:07:52;95697.69;;;3.65;62.63
11692;BME280;33659;42.672;23.354;2023-02-14T01:10:19;95692.50;;;3.65;62.98
11692;BME280;33659;42.672;23.354;2023-02-14T01:12:45;95710.56;;;3.55;63.27
11692;BME280;33659;42.672;23.354;2023-02-14T01:15:12;95694.25;;;3.49;62.80
11692;BME280;33659;42.672;23.354;2023-02-14T01:17:39;95710.97;;;3.42;63.26
11692;BME280;33659;42.672;23.354;2023-02-14T01:20:07;95705.28;;;3.40;63.56
11692;BME280;33659;42.672;23.354;2023-02-14T01:22:36;95706.34;;;3.44;63.99
11692;BME280;33659;42.672;23.354;2023-02-14T01:25:03;95696.81;;;3.49;63.63
11692;BME280;33659;42.672;23.354;2023-02-14T01:27:30;95666.88;;;3.48;62.99
11692;BME280;33659;42.672;23.354;2023-02-14T01:29:56;95696.28;;;3.47;63.59
11692;BME280;33659;42.672;23.354;2023-02-14T01:32:23;95685.16;;;3.47;63.67
11692;BME280;33659;42.672;23.354;2023-02-14T01:34:50;95708.44;;;3.52;63.51
11692;BME280;33659;42.672;23.354;2023-02-14T01:37:16;95677.25;;;3.59;63.44
11692;BME280;33659;42.672;23.354;2023-02-14T01:39:44;95718.31;;;3.55;63.10
11692;BME280;33659;42.672;23.354;2023-02-14T01:42:11;95667.66;;;3.54;63.22
11692;BME280;33659;42.672;23.354;2023-02-14T01:45:02;95657.88;;;3.56;63.02
11692;BME280;33659;42.672;23.354;2023-02-14T01:47:31;95693.00;;;3.57;63.07
11692;BME280;33659;42.672;23.354;2023-02-14T01:50:02;95663.81;;;3.57;62.75
11692;BME280;33659;42.672;23.354;2023-02-14T01:52:32;95669.00;;;3.62;62.54
11692;BME280;33659;42.672;23.354;2023-02-14T01:55:05;95659.41;;;3.57;63.04
11692;BME280;33659;42.672;23.354;2023-02-14T01:57:36;95646.00;;;3.55;63.25
11692;BME280;33659;42.672;23.354;2023-02-14T02:00:05;95650.09;;;3.51;63.12
11692;BME280;33659;42.672;23.354;2023-02-14T02:02:50;95650.88;;;3.51;63.13
11692;BME280;33659;42.672;23.354;2023-02-14T02:05:18;95675.44;;;3.59;62.94
11692;BME280;33659;42.672;23.354;2023-02-14T02:07:48;95662.56;;;3.64;62.92
11692;BME280;33659;42.672;23.354;2023-02-14T02:10:17;95670.28;;;3.59;62.39
11692;BME280;33659;42.672;23.354;2023-02-14T02:12:44;95640.81;;;3.55;62.86
11692;BME280;33659;42.672;23.354;2023-02-14T02:15:11;95637.69;;;3.53;62.98
11692;BME280;33659;42.672;23.354;2023-02-14T02:17:46;95656.53;;;3.48;63.33
11692;BME280;33659;42.672;23.354;2023-02-14T02:20:44;95660.41;;;3.51;63.65
11692;BME280;33659;42.672;23.354;2023-02-14T02:23:41;95644.16;;;3.50;63.18
11692;BME280;33659;42.672;23.354;2023-02-14T02:27:01;95650.31;;;3.44;63.13
11692;BME280;33659;42.672;23.354;2023-02-14T02:29:54;95631.50;;;3.49;63.37
11692;BME280;33659;42.672;23.354;2023-02-14T02:32:40;95661.72;;;3.53;62.68
11692;BME280;33659;42.672;23.354;2023-02-14T02:35:40;95632.03;;;3.56;62.62
11692;BME280;33659;42.672;23.354;2023-02-14T02:38:20;95634.38;;;3.58;62.65
11692;BME280;33659;42.672;23.354;2023-02-14T02:40:59;95628.97;;;3.64;62.53
11692;BME280;33659;42.672;23.354;2023-02-14T02:43:37;95633.38;;;3.64;62.24
11692;BME280;33659;42.672;23.354;2023-02-14T02:46:15;95610.38;;;3.62;62.00
11692;BME280;33659;42.672;23.354;2023-02-14T02:49:04;95638.75;;;3.57;62.70
11692;BME280;33659;42.672;23.354;2023-02-14T02:51:40;95597.47;;;3.62;62.20
11692;BME280;33659;42.672;23.354;2023-02-14T02:54:29;95627.19;;;3.70;62.23
11692;BME280;33659;42.672;23.354;2023-02-14T02:56:58;95617.56;;;3.60;61.63
11692;BME280;33659;42.672;23.354;2023-02-14T02:59:28;95617.34;;;3.67;62.71
11692;BME280;33659;42.672;23.354;2023-02-14T03:02:00;95627.91;;;3.60;62.23
11692;BME280;33659;42.672;23.354;2023-02-14T03:04:31;95619.69;;;3.63;62.19
11692;BME280;33659;42.672;23.354;2023-02-14T03:07:18;95635.91;;;3.59;62.25
11692;BME280;33659;42.672;23.354;2023-02-14T03:10:03;95626.88;;;3.56;62.52
11692;BME280;33659;42.672;23.354;2023-02-14T03:12:56;95616.00;;;3.49;62.27
11692;BME280;33659;42.672;23.354;2023-02-14T03:15:40;95648.56;;;3.55;62.87
11692;BME280;33659;42.672;23.354;2023-02-14T03:18:13;95618.59;;;3.54;63.21
11692;BME280;33659;42.672;23.354;2023-02-14T03:20:50;95625.31;;;3.55;62.63
11692;BME280;33659;42.672;23.354;2023-02-14T03:23:22;95613.97;;;3.56;62.84
11692;BME280;33659;42.672;23.354;2023-02-14T03:25:59;95613.22;;;3.61;62.14
11692;BME280;33659;42.672;23.354;2023-02-14T03:28:35;95605.69;;;3.59;62.40
11692;BME280;33659;42.672;23.354;2023-02-14T03:31:07;95600.03;;;3.62;62.63
11692;BME280;33659;42.672;23.354;2023-02-14T03:33:43;95594.91;;;3.72;62.10
11692;BME280;33659;42.672;23.354;2023-02-14T03:36:16;95597.50;;;3.67;62.07
11692;BME280;33659;42.672;23.354;2023-02-14T03:38:53;95568.78;;;3.59;62.80
11692;BME280;33659;42.672;23.354;2023-02-14T03:41:25;95586.56;;;3.50;62.84
11692;BME280;33659;42.672;23.354;2023-02-14T03:43:57;95603.31;;;3.42;62.99
11692;BME280;33659;42.672;23.354;2023-02-14T03:46:27;95581.31;;;3.30;63.29
11692;BME280;33659;42.672;23.354;2023-02-14T03:48:57;95583.13;;;3.34;63.31
11692;BME280;33659;42.672;23.354;2023-02-14T03:51:26;95596.50;;;3.26;63.73
11692;BME280;33659;42.672;23.354;2023-02-14T03:54:00;95589.06;;;3.30;62.92
11692;BME280;33659;42.672;23.354;2023-02-14T03:56:33;95564.75;;;3.25;63.16
11692;BME280;33659;42.672;23.354;2023-02-14T03:59:06;95571.47;;;3.26;63.42
11692;BME280;33659;42.672;23.354;2023-02-14T04:01:36;95562.44;;;3.24;63.34
11692;BME280;33659;42.672;23.354;2023-02-14T04:04:06;95569.63;;;3.22;63.62
11692;BME280;33659;42.672;23.354;2023-02-14T04:06:34;95567.84;;;3.28;63.08
11692;BME280;33659;42.672;23.354;2023-02-14T04:09:02;95565.78;;;3.24;63.03
11692;BME280;33659;42.672;23.354;2023-02-14T04:11:29;95563.69;;;3.16;63.19
11692;BME280;33659;42.672;23.354;2023-02-14T04:13:59;95561.09;;;3.16;63.51
11692;BME280;33659;42.672;23.354;2023-02-14T04:16:26;95570.66;;;3.16;63.43
11692;BME280;33659;42.672;23.354;2023-02-14T04:18:53;95564.91;;;3.09;63.51
11692;BME280;33659;42.672;23.354;2023-02-14T04:21:37;95556.69;;;3.12;63.84
11692;BME280;33659;42.672;23.354;2023-02-14T04:24:05;95561.34;;;3.10;63.59
11692;BME280;33659;42.672;23.354;2023-02-14T04:26:32;95567.81;;;3.17;63.27
11692;BME280;33659;42.672;23.354;2023-02-14T04:28:59;95567.78;;;3.12;62.88
11692;BME280;33659;42.672;23.354;2023-02-14T04:31:26;95573.47;;;3.14;62.93
11692;BME280;33659;42.672;23.354;2023-02-14T04:33:52;95597.75;;;3.18;62.64
11692;BME280;33659;42.672;23.354;2023-02-14T04:36:19;95568.84;;;3.21;63.32
11692;BME280;33659;42.672;23.354;2023-02-14T04:38:46;95562.44;;;3.24;62.77
11692;BME280;33659;42.672;23.354;2023-02-14T04:41:14;95551.88;;;3.31;62.45
11692;BME280;33659;42.672;23.354;2023-02-14T04:43:40;95542.03;;;3.22;62.86
11692;BME280;33659;42.672;23.354;2023-02-14T04:46:07;95541.50;;;3.20;62.58
11692;BME280;33659;42.672;23.354;2023-02-14T04:48:34;95568.84;;;3.21;62.59
11692;BME280;33659;42.672;23.354;2023-02-14T04:51:00;95558.03;;;3.24;62.06
11692;BME280;33659;42.672;23.354;2023-02-14T04:53:27;95554.44;;;3.25;62.46
11692;BME280;33659;42.672;23.354;2023-02-14T04:55:53;95567.63;;;3.34;62.26
11692;BME280;33659;42.672;23.354;2023-02-14T04:58:21;95545.66;;;3.26;61.87
11692;BME280;33659;42.672;23.354;2023-02-14T05:00:48;95540.25;;;3.23;62.89
11692;BME280;33659;42.672;23.354;2023-02-14T05:03:15;95522.44;;;3.26;62.44
11692;BME280;33659;42.672;23.354;2023-02-14T05:05:41;95538.88;;;3.15;62.68
11692;BME280;33659;42.672;23.354;2023-02-14T05:08:08;95546.09;;;3.13;62.83
11692;BME280;33659;42.672;23.354;2023-02-14T05:10:35;95557.72;;;3.11;62.91
11692;BME280;33659;42.672;23.354;2023-02-14T05:13:01;95550.00;;;3.16;62.42
11692;BME280;33659;42.672;23.354;2023-02-14T05:15:29;95543.56;;;3.18;62.88
11692;BME280;33659;42.672;23.354;2023-02-14T05:17:56;95542.78;;;3.18;62.23
11692;BME280;33659;42.672;23.354;2023-02-14T05:20:26;95548.22;;;3.16;62.78
11692;BME280;33659;42.672;23.354;2023-02-14T05:22:53;95533.25;;;3.18;62.94
11692;BME280;33659;42.672;23.354;2023-02-14T05:25:20;95537.41;;;3.24;62.04
11692;BME280;33659;42.672;23.354;2023-02-14T05:27:47;95530.13;;;3.16;62.36
11692;BME280;33659;42.672;23.354;2023-02-14T05:30:14;95539.97;;;3.24;62.53
11692;BME280;33659;42.672;23.354;2023-02-14T05:32:42;95537.88;;;3.21;62.53
11692;BME280;33659;42.672;23.354;2023-02-14T05:35:09;95539.94;;;3.19;62.03
11692;BME280;33659;42.672;23.354;2023-02-14T05:37:36;95521.84;;;3.14;62.72
11692;BME280;33659;42.672;23.354;2023-02-14T05:40:03;95553.25;;;3.01;63.26
11692;BME280;33659;42.672;23.354;2023-02-14T05:42:31;95525.44;;;3.03;62.84
11692;BME280;33659;42.672;23.354;2023-02-14T05:44:58;95521.31;;;3.07;62.97
11692;BME280;33659;42.672;23.354;2023-02-14T05:47:24;95505.81;;;3.07;62.70
11692;BME280;33659;42.672;23.354;2023-02-14T05:49:52;95520.78;;;3.05;62.83
11692;BME280;33659;42.672;23.354;2023-02-14T05:52:19;95530.03;;;3.01;62.82
11692;BME280;33659;42.672;23.354;2023-02-14T05:54:46;95540.41;;;3.06;63.14
11692;BME280;33659;42.672;23.354;2023-02-14T05:57:12;95562.31;;;3.04;62.81
11692;BME280;33659;42.672;23.354;2023-02-14T05:59:39;95524.66;;;3.08;63.46
11692;BME280;33659;42.672;23.354;2023-02-14T06:02:06;95533.97;;;3.14;63.05
11692;BME280;33659;42.672;23.354;2023-02-14T06:04:32;95530.13;;;3.16;63.01
11692;BME280;33659;42.672;23.354;2023-02-14T06:07:00;95517.50;;;3.20;62.88
11692;BME280;33659;42.672;23.354;2023-02-14T06:09:27;95534.56;;;3.26;62.93
11692;BME280;33659;42.672;23.354;2023-02-14T06:11:54;95537.41;;;3.35;62.51
11692;BME280;33659;42.672;23.354;2023-02-14T06:14:20;95535.66;;;3.35;62.41
11692;BME280;33659;42.672;23.354;2023-02-14T06:16:47;95530.72;;;3.34;62.95
11692;BME280;33659;42.672;23.354;2023-02-14T06:19:14;95512.53;;;3.08;62.87
11692;BME280;33659;42.672;23.354;2023-02-14T06:21:40;95558.66;;;3.42;64.90
11692;BME280;33659;42.672;23.354;2023-02-14T06:24:09;95541.19;;;3.74;64.77
11692;BME280;33659;42.672;23.354;2023-02-14T06:26:35;95568.38;;;3.97;63.59
11692;BME280;33659;42.672;23.354;2023-02-14T06:29:03;95557.78;;;4.09;63.42
11692;BME280;33659;42.672;23.354;2023-02-14T06:31:29;95535.31;;;4.15;62.08
11692;BME280;33659;42.672;23.354;2023-02-14T06:33:56;95547.22;;;4.31;62.28
11692;BME280;33659;42.672;23.354;2023-02-14T06:36:23;95563.00;;;4.29;61.51
11692;BME280;33659;42.672;23.354;2023-02-14T06:38:50;95549.53;;;4.38;60.79
11692;BME280;33659;42.672;23.354;2023-02-14T06:41:18;95543.09;;;4.35;59.99
11692;BME280;33659;42.672;23.354;2023-02-14T06:43:46;95559.34;;;4.10;60.13
11692;BME280;33659;42.672;23.354;2023-02-14T06:46:14;95553.41;;;3.99;60.91
11692;BME280;33659;42.672;23.354;2023-02-14T06:48:41;95540.44;;;3.89;61.80
11692;BME280;33659;42.672;23.354;2023-02-14T06:51:07;95540.19;;;3.80;61.53
11692;BME280;33659;42.672;23.354;2023-02-14T06:53:35;95529.84;;;3.86;61.56
11692;BME280;33659;42.672;23.354;2023-02-14T06:56:02;95544.56;;;3.80;62.02
11692;BME280;33659;42.672;23.354;2023-02-14T06:58:30;95548.22;;;3.94;62.39
11692;BME280;33659;42.672;23.354;2023-02-14T07:00:57;95532.44;;;3.96;61.33
11692;BME280;33659;42.672;23.354;2023-02-14T07:03:24;95523.66;;;3.97;61.29
11692;BME280;33659;42.672;23.354;2023-02-14T07:05:51;95509.69;;;3.93;61.67
11692;BME280;33659;42.672;23.354;2023-02-14T07:08:19;95527.78;;;3.88;61.99
11692;BME280;33659;42.672;23.354;2023-02-14T07:10:46;95533.47;;;3.85;63.08
11692;BME280;33659;42.672;23.354;2023-02-14T07:13:12;95491.84;;;3.76;63.13
11692;BME280;33659;42.672;23.354;2023-02-14T07:15:40;95550.22;;;3.72;63.54
11692;BME280;33659;42.672;23.354;2023-02-14T07:18:07;95516.91;;;3.70;63.63
11692;BME280;33659;42.672;23.354;2023-02-14T07:20:34;95526.69;;;3.73;64.04
11692;BME280;33659;42.672;23.354;2023-02-14T07:23:01;95522.84;;;3.76;64.47
11692;BME280;33659;42.672;23.354;2023-02-14T07:25:28;95532.44;;;3.80;64.65
11692;BME280;33659;42.672;23.354;2023-02-14T07:27:55;95549.47;;;3.82;64.62
11692;BME280;33659;42.672;23.354;2023-02-14T07:30:21;95512.00;;;3.74;65.49
11692;BME280;33659;42.672;23.354;2023-02-14T07:32:49;95493.91;;;3.64;65.87
11692;BME280;33659;42.672;23.354;2023-02-14T07:35:16;95554.31;;;3.58;67.21
11692;BME280;33659;42.672;23.354;2023-02-14T07:37:43;95521.69;;;3.41;66.83
11692;BME280;33659;42.672;23.354;2023-02-14T07:40:10;95515.84;;;3.61;66.52
11692;BME280;33659;42.672;23.354;2023-02-14T07:42:37;95540.09;;;3.60;67.52
11692;BME280;33659;42.672;23.354;2023-02-14T07:45:04;95515.28;;;3.49;68.01
11692;BME280;33659;42.672;23.354;2023-02-14T07:47:32;95550.19;;;3.62;68.01
11692;BME280;33659;42.672;23.354;2023-02-14T07:50:00;95537.03;;;3.68;67.47
11692;BME280;33659;42.672;23.354;2023-02-14T07:52:26;95508.84;;;3.57;68.28
11692;BME280;33659;42.672;23.354;2023-02-14T07:54:53;95549.41;;;3.66;68.29
11692;BME280;33659;42.672;23.354;2023-02-14T07:57:20;95535.47;;;3.57;68.67
11692;BME280;33659;42.672;23.354;2023-02-14T07:59:46;95548.88;;;3.49;68.89
11692;BME280;33659;42.672;23.354;2023-02-14T08:02:13;95541.88;;;3.44;69.15
11692;BME280;33659;42.672;23.354;2023-02-14T08:04:40;95545.25;;;3.50;69.07
11692;BME280;33659;42.672;23.354;2023-02-14T08:07:08;95564.34;;;3.49;70.24
11692;BME280;33659;42.672;23.354;2023-02-14T08:09:34;95564.34;;;3.54;69.64
11692;BME280;33659;42.672;23.354;2023-02-14T08:12:01;95558.69;;;3.57;69.96
11692;BME280;33659;42.672;23.354;2023-02-14T08:14:45;95552.97;;;3.45;70.38
11692;BME280;33659;42.672;23.354;2023-02-14T08:17:12;95533.91;;;3.56;69.99
11692;BME280;33659;42.672;23.354;2023-02-14T08:19:39;95604.59;;;3.45;69.81
11692;BME280;33659;42.672;23.354;2023-02-14T08:22:07;95569.50;;;3.44;70.25
11692;BME280;33659;42.672;23.354;2023-02-14T08:24:34;95541.59;;;3.46;69.79
11692;BME280;33659;42.672;23.354;2023-02-14T08:27:01;95539.53;;;3.43;70.29
11692;BME280;33659;42.672;23.354;2023-02-14T08:29:27;95567.69;;;3.44;70.35
11692;BME280;33659;42.672;23.354;2023-02-14T08:31:54;95561.78;;;3.59;69.67
11692;BME280;33659;42.672;23.354;2023-02-14T08:34:25;95568.53;;;3.65;70.21
11692;BME280;33659;42.672;23.354;2023-02-14T08:36:53;95568.25;;;3.57;70.02
11692;BME280;33659;42.672;23.354;2023-02-14T08:39:22;95555.84;;;3.59;69.78
11692;BME280;33659;42.672;23.354;2023-02-14T08:41:48;95538.00;;;3.47;69.66
11692;BME280;33659;42.672;23.354;2023-02-14T08:44:15;95563.06;;;3.51;69.99
11692;BME280;33659;42.672;23.354;2023-02-14T08:46:41;95587.06;;;3.42;69.69
11692;BME280;33659;42.672;23.354;2023-02-14T08:49:08;95561.22;;;3.47;69.68
11692;BME280;33659;42.672;23.354;2023-02-14T08:51:35;95581.66;;;3.53;69.65
11692;BME280;33659;42.672;23.354;2023-02-14T08:54:02;95548.09;;;3.48;70.55
11692;BME280;33659;42.672;23.354;2023-02-14T08:56:30;95604.91;;;3.48;70.49
11692;BME280;33659;42.672;23.354;2023-02-14T08:58:57;95567.44;;;3.51;71.04
11692;BME280;33659;42.672;23.354;2023-02-14T09:01:24;95516.22;;;3.28;71.28
11692;BME280;33659;42.672;23.354;2023-02-14T09:03:50;95568.00;;;3.58;70.64
11692;BME280;33659;42.672;23.354;2023-02-14T09:06:17;95588.16;;;3.61;70.53
11692;BME280;33659;42.672;23.354;2023-02-14T09:08:44;95569.06;;;3.62;70.26
11692;BME280;33659;42.672;23.354;2023-02-14T09:11:12;95560.53;;;3.67;70.10
11692;BME280;33659;42.672;23.354;2023-02-14T09:13:41;95568.50;;;3.55;70.02
11692;BME280;33659;42.672;23.354;2023-02-14T09:16:10;95535.41;;;3.42;71.06
11692;BME280;33659;42.672;23.354;2023-02-14T09:18:38;95573.91;;;3.48;71.19
11692;BME280;33659;42.672;23.354;2023-02-14T09:21:07;95561.78;;;3.54;71.16
11692;BME280;33659;42.672;23.354;2023-02-14T09:23:34;95529.22;;;3.53;71.24
11692;BME280;33659;42.672;23.354;2023-02-14T09:26:01;95535.94;;;3.54;70.84
11692;BME280;33659;42.672;23.354;2023-02-14T09:28:29;95537.00;;;3.48;70.86
11692;BME280;33659;42.672;23.354;2023-02-14T09:30:57;95530.25;;;3.42;70.54
11692;BME280;33659;42.672;23.354;2023-02-14T09:33:26;95551.16;;;3.45;71.13
11692;BME280;33659;42.672;23.354;2023-02-14T09:35:53;95525.06;;;3.47;70.77
11692;BME280;33659;42.672;23.354;2023-02-14T09:38:20;95540.81;;;3.40;70.97
11692;BME280;33659;42.672;23.354;2023-02-14T09:40:47;95518.84;;;3.38;71.20
11692;BME280;33659;42.672;23.354;2023-02-14T09:43:20;95534.38;;;3.43;70.80
11692;BME280;33659;42.672;23.354;2023-02-14T09:45:52;95544.69;;;3.38;71.16
11692;BME280;33659;42.672;23.354;2023-02-14T09:48:24;95536.41;;;3.41;71.06
11692;BME280;33659;42.672;23.354;2023-02-14T09:50:55;95524.50;;;3.35;71.00
11692;BME280;33659;42.672;23.354;2023-02-14T09:53:25;95521.75;;;3.51;69.72
11692;BME280;33659;42.672;23.354;2023-02-14T09:56:00;95511.38;;;3.36;70.21
11692;BME280;33659;42.672;23.354;2023-02-14T09:58:32;95553.53;;;3.57;70.35
11692;BME280;33659;42.672;23.354;2023-02-14T10:01:05;95535.94;;;3.49;70.18
11692;BME280;33659;42.672;23.354;2023-02-14T10:03:52;95527.16;;;3.45;70.50
11692;BME280;33659;42.672;23.354;2023-02-14T10:06:35;95525.09;;;3.42;70.59
11692;BME280;33659;42.672;23.354;2023-02-14T10:09:12;95491.22;;;3.33;70.49
11692;BME280;33659;42.672;23.354;2023-02-14T10:11:45;95529.22;;;3.43;70.61
11692;BME280;33659;42.672;23.354;2023-02-14T10:14:15;95512.19;;;3.52;70.02
11692;BME280;33659;42.672;23.354;2023-02-14T10:16:46;95526.69;;;3.58;69.80
11692;BME280;33659;42.672;23.354;2023-02-14T10:19:18;95531.59;;;3.65;70.03
11692;BME280;33659;42.672;23.354;2023-02-14T10:21:50;95517.41;;;3.62;69.34
11692;BME280;33659;42.672;23.354;2023-02-14T10:24:23;95464.16;;;3.46;69.48
11692;BME280;33659;42.672;23.354;2023-02-14T10:26:52;95521.50;;;3.48;70.00
11692;BME280;33659;42.672;23.354;2023-02-14T10:29:22;95521.75;;;3.51;69.69
11692;BME280;33659;42.672;23.354;2023-02-14T10:31:51;95500.31;;;3.51;69.41
11692;BME280;33659;42.672;23.354;2023-02-14T10:34:27;95494.94;;;3.63;69.20
11692;BME280;33659;42.672;23.354;2023-02-14T10:37:09;95500.81;;;3.53;69.67
11692;BME280;33659;42.672;23.354;2023-02-14T10:39:54;95477.56;;;3.38;70.03
11692;BME280;33659;42.672;23.354;2023-02-14T10:42:35;95497.16;;;3.34;70.43
11692;BME280;33659;42.672;23.354;2023-02-14T10:45:14;95497.16;;;3.34;70.68
11692;BME280;33659;42.672;23.354;2023-02-14T10:47:50;95506.22;;;3.36;70.64
11692;BME280;33659;42.672;23.354;2023-02-14T10:50:27;95505.44;;;3.41;69.99
11692;BME280;33659;42.672;23.354;2023-02-14T10:53:04;95493.56;;;3.40;70.05
11692;BME280;33659;42.672;23.354;2023-02-14T10:55:41;95462.53;;;3.19;70.25
11692;BME280;33659;42.672;23.354;2023-02-14T10:58:12;95507.25;;;3.35;70.18
11692;BME280;33659;42.672;23.354;2023-02-14T11:00:53;95495.66;;;3.48;69.34
11692;BME280;33659;42.672;23.354;2023-02-14T11:03:21;95480.91;;;3.38;69.43
11692;BME280;33659;42.672;23.354;2023-02-14T11:05:49;95500.56;;;3.44;69.73
11692;BME280;33659;42.672;23.354;2023-02-14T11:08:23;95515.00;;;3.40;69.18
11692;BME280;33659;42.672;23.354;2023-02-14T11:10:51;95505.44;;;3.36;69.24
11692;BME280;33659;42.672;23.354;2023-02-14T11:13:31;95490.94;;;3.35;69.48
11692;BME280;33659;42.672;23.354;2023-02-14T11:15:59;95466.66;;;3.25;68.51
11692;BME280;33659;42.672;23.354;2023-02-14T11:18:27;95456.31;;;3.15;69.63
11692;BME280;33659;42.672;23.354;2023-02-14T11:21:07;95496.56;;;3.11;69.49
11692;BME280;33659;42.672;23.354;2023-02-14T11:23:37;95481.63;;;3.18;68.67
11692;BME280;33659;42.672;23.354;2023-02-14T11:26:13;95442.28;;;2.96;69.51
11692;BME280;33659;42.672;23.354;2023-02-14T11:28:48;95495.59;;;3.33;68.86
11692;BME280;33659;42.672;23.354;2023-02-14T11:31:24;95481.66;;;3.29;68.48
11692;BME280;33659;42.672;23.354;2023-02-14T11:33:51;95495.09;;;3.31;68.41
11692;BME280;33659;42.672;23.354;2023-02-14T11:36:20;95438.50;;;3.14;68.60
11692;BME280;33659;42.672;23.354;2023-02-14T11:38:55;95442.69;;;3.30;67.29
11692;BME280;33659;42.672;23.354;2023-02-14T11:41:23;95513.66;;;3.28;67.84
11692;BME280;33659;42.672;23.354;2023-02-14T11:43:50;95470.31;;;3.35;67.11
11692;BME280;33659;42.672;23.354;2023-02-14T11:46:24;95473.69;;;3.40;66.56
11692;BME280;33659;42.672;23.354;2023-02-14T11:48:57;95459.50;;;3.43;67.36
11692;BME280;33659;42.672;23.354;2023-02-14T11:51:28;95447.38;;;3.53;66.56
11692;BME280;33659;42.672;23.354;2023-02-14T11:53:57;95451.75;;;3.43;66.03
11692;BME280;33659;42.672;23.354;2023-02-14T11:56:45;95456.94;;;3.53;64.96
11692;BME280;33659;42.672;23.354;2023-02-14T11:59:23;95479.16;;;3.49;65.77
11692;BME280;33659;42.672;23.354;2023-02-14T12:01:51;95436.03;;;3.55;65.46
11692;BME280;33659;42.672;23.354;2023-02-14T12:04:21;95447.13;;;3.55;65.05
11692;BME280;33659;42.672;23.354;2023-02-14T12:06:50;95435.78;;;3.66;65.76
11692;BME280;33659;42.672;23.354;2023-02-14T12:09:25;95422.38;;;3.74;64.76
11692;BME280;33659;42.672;23.354;2023-02-14T12:11:54;95417.19;;;3.74;64.98
11692;BME280;33659;42.672;23.354;2023-02-14T12:14:23;95393.19;;;3.74;65.22
11692;BME280;33659;42.672;23.354;2023-02-14T12:16:55;95420.81;;;3.78;64.97
11692;BME280;33659;42.672;23.354;2023-02-14T12:19:29;95399.38;;;3.88;65.12
11692;BME280;33659;42.672;23.354;2023-02-14T12:22:02;95450.78;;;3.90;64.96
11692;BME280;33659;42.672;23.354;2023-02-14T12:24:32;95462.69;;;3.96;64.94
11692;BME280;33659;42.672;23.354;2023-02-14T12:27:09;95416.66;;;3.98;64.91
11692;BME280;33659;42.672;23.354;2023-02-14T12:29:40;95384.88;;;3.97;64.06
11692;BME280;33659;42.672;23.354;2023-02-14T12:32:17;95446.13;;;3.97;65.00
11692;BME280;33659;42.672;23.354;2023-02-14T12:34:46;95417.72;;;4.02;64.56
11692;BME280;33659;42.672;23.354;2023-02-14T12:37:19;95422.34;;;4.15;68.22
11692;BME280;33659;42.672;23.354;2023-02-14T12:40:01;95391.34;;;4.15;64.50
11692;BME280;33659;42.672;23.354;2023-02-14T12:42:47;95401.94;;;4.14;64.88
11692;BME280;33659;42.672;23.354;2023-02-14T12:45:23;95419.50;;;4.27;64.98
11692;BME280;33659;42.672;23.354;2023-02-14T12:48:01;95414.06;;;4.23;64.53
11692;BME280;33659;42.672;23.354;2023-02-14T12:50:39;95395.97;;;4.28;64.59
11692;BME280;33659;42.672;23.354;2023-02-14T12:53:32;95407.34;;;4.22;63.83
11692;BME280;33659;42.672;23.354;2023-02-14T12:56:07;95425.97;;;4.24;64.53
11692;BME280;33659;42.672;23.354;2023-02-14T12:58:45;95418.19;;;4.29;66.59
11692;BME280;33659;42.672;23.354;2023-02-14T13:01:46;95394.91;;;4.45;64.84
11692;BME280;33659;42.672;23.354;2023-02-14T13:07:22;95400.09;;;4.34;63.97
11692;BME280;33659;42.672;23.354;2023-02-14T13:09:56;95391.34;;;4.25;67.09
11692;BME280;33659;42.672;23.354;2023-02-14T13:12:32;95479.22;;;4.46;64.94
11692;BME280;33659;42.672;23.354;2023-02-14T13:15:10;95402.91;;;4.43;64.32
11692;BME280;33659;42.672;23.354;2023-02-14T13:17:43;95398.56;;;4.18;64.62
11692;BME280;33659;42.672;23.354;2023-02-14T13:20:29;95396.75;;;4.24;65.22
11692;BME280;33659;42.672;23.354;2023-02-14T13:23:02;95393.41;;;4.13;65.64